createdAt,value
2018-05-03T00:01:25.172Z,13.95
2018-05-03T00:03:51.568Z,14.03
2018-05-03T00:06:18.015Z,13.96
2018-05-03T00:08:45.264Z,14.00
2018-05-03T00:11:12.493Z,14.00
2018-05-03T00:13:39.785Z,13.94
2018-05-03T00:16:06.211Z,13.92
2018-05-03T00:18:32.679Z,13.86
2018-05-03T00:20:59.095Z,13.87
2018-05-03T00:23:25.607Z,13.84
2018-05-03T00:25:53.161Z,13.77
2018-05-03T00:28:19.543Z,13.82
2018-05-03T00:30:45.947Z,13.82
2018-05-03T00:33:12.346Z,13.83
2018-05-03T00:35:38.810Z,13.82
2018-05-03T00:38:05.557Z,13.74
2018-05-03T00:40:32.032Z,13.83
2018-05-03T00:42:58.449Z,13.79
2018-05-03T00:45:24.983Z,13.69
2018-05-03T00:47:51.395Z,13.80
2018-05-03T00:50:18.133Z,13.74
2018-05-03T00:52:44.578Z,13.75
2018-05-03T00:55:11.001Z,13.76
2018-05-03T00:57:37.399Z,13.69
2018-05-03T01:00:04.599Z,13.67
2018-05-03T01:02:30.990Z,13.73
2018-05-03T01:04:58.183Z,13.64
2018-05-03T01:07:24.628Z,13.67
2018-05-03T01:09:51.086Z,13.67
2018-05-03T01:12:18.252Z,13.76
2018-05-03T01:14:45.835Z,13.74
2018-05-03T01:17:12.234Z,13.67
2018-05-03T01:19:40.134Z,13.65
2018-05-03T01:22:06.604Z,13.54
2018-05-03T01:24:33.056Z,13.65
2018-05-03T01:26:59.478Z,13.56
2018-05-03T01:29:25.871Z,13.59
2018-05-03T01:31:52.281Z,13.54
2018-05-03T01:34:19.539Z,13.50
2018-05-03T01:36:46.699Z,13.51
2018-05-03T01:39:13.440Z,13.41
2018-05-03T01:41:40.184Z,13.39
2018-05-03T01:44:06.607Z,13.52
2018-05-03T01:46:33.739Z,13.43
2018-05-03T01:49:00.944Z,13.35
2018-05-03T01:51:27.352Z,13.40
2018-05-03T01:53:54.104Z,13.39
2018-05-03T01:56:20.534Z,13.31
2018-05-03T01:58:47.043Z,13.17
2018-05-03T02:01:13.495Z,13.31
2018-05-03T02:03:39.985Z,13.13
2018-05-03T02:06:06.404Z,13.12
2018-05-03T02:08:32.848Z,13.12
2018-05-03T02:10:59.252Z,13.10
2018-05-03T02:13:26.066Z,13.07
2018-05-03T02:15:52.487Z,13.07
2018-05-03T02:18:19.964Z,13.04
2018-05-03T02:20:46.392Z,13.03
2018-05-03T02:23:12.780Z,12.99
2018-05-03T02:25:39.240Z,13.01
2018-05-03T02:28:05.717Z,13.00
2018-05-03T02:30:32.143Z,12.94
2018-05-03T02:32:58.610Z,12.89
2018-05-03T02:35:25.036Z,13.06
2018-05-03T02:37:51.474Z,13.06
2018-05-03T02:40:17.887Z,13.02
2018-05-03T02:42:44.592Z,13.04
2018-05-03T02:45:11.007Z,13.05
2018-05-03T02:47:37.486Z,13.04
2018-05-03T02:50:03.974Z,13.11
2018-05-03T02:52:31.149Z,13.18
2018-05-03T02:54:57.582Z,13.15
2018-05-03T02:57:48.833Z,13.13
2018-05-03T03:00:40.005Z,13.15
2018-05-03T03:03:30.784Z,13.07
2018-05-03T03:06:16.505Z,13.11
2018-05-03T03:16:15.450Z,13.06
2018-05-03T03:19:06.582Z,13.07
2018-05-03T03:21:57.989Z,13.07
2018-05-03T03:24:42.807Z,13.08
2018-05-03T03:27:34.743Z,13.06
2018-05-03T03:33:37.243Z,13.05
2018-05-03T03:36:22.848Z,13.09
2018-05-03T03:41:54.928Z,13.20
2018-05-03T03:44:39.847Z,13.25
2018-05-03T03:47:06.474Z,13.28
2018-05-03T03:49:32.948Z,13.17
2018-05-03T03:52:00.224Z,13.21
2018-05-03T03:54:26.626Z,13.23
2018-05-03T03:56:53.773Z,13.15
2018-05-03T03:59:20.925Z,13.35
2018-05-03T04:01:48.184Z,13.21
2018-05-03T04:04:15.388Z,13.34
2018-05-03T04:06:41.892Z,13.33
2018-05-03T04:09:08.349Z,13.24
2018-05-03T04:11:34.783Z,13.23
2018-05-03T04:14:01.231Z,13.24
2018-05-03T04:16:28.032Z,13.25
2018-05-03T04:19:13.162Z,13.17
2018-05-03T04:21:59.642Z,13.25
2018-05-03T04:24:44.633Z,13.28
2018-05-03T04:27:11.118Z,13.22
2018-05-03T04:29:37.549Z,13.22
2018-05-03T04:32:03.984Z,13.29
2018-05-03T04:34:30.446Z,13.41
2018-05-03T04:36:56.894Z,13.47
2018-05-03T04:39:23.403Z,13.43
2018-05-03T04:41:49.849Z,13.48
2018-05-03T04:44:16.341Z,13.53
2018-05-03T04:46:42.776Z,13.61
2018-05-03T04:49:09.216Z,13.54
2018-05-03T04:51:35.744Z,13.56
2018-05-03T04:54:02.226Z,13.57
2018-05-03T04:56:28.728Z,13.70
2018-05-03T04:58:55.467Z,13.97
2018-05-03T05:01:21.933Z,13.96
2018-05-03T05:03:48.404Z,13.81
2018-05-03T05:06:15.682Z,13.80
2018-05-03T05:08:42.166Z,13.74
2018-05-03T05:11:08.619Z,13.84
2018-05-03T05:13:35.149Z,13.96
2018-05-03T05:16:02.365Z,13.90
2018-05-03T05:18:28.860Z,14.00
2018-05-03T05:20:55.291Z,14.13
2018-05-03T05:23:21.824Z,13.93
2018-05-03T05:25:48.375Z,14.00
2018-05-03T05:28:15.238Z,13.95
2018-05-03T05:30:41.780Z,13.95
2018-05-03T05:33:08.191Z,13.96
2018-05-03T05:35:34.635Z,14.08
2018-05-03T05:38:01.318Z,14.11
2018-05-03T05:40:28.499Z,14.17
2018-05-03T05:42:55.065Z,14.09
2018-05-03T05:45:21.561Z,14.26
2018-05-03T05:47:48.761Z,14.17
2018-05-03T05:50:15.562Z,14.25
2018-05-03T05:52:42.202Z,14.42
2018-05-03T05:55:08.708Z,14.27
2018-05-03T05:57:35.927Z,14.30
2018-05-03T06:00:02.434Z,14.62
2018-05-03T06:02:28.902Z,14.67
2018-05-03T06:04:55.324Z,14.58
2018-05-03T06:07:21.749Z,14.70
2018-05-03T06:09:48.203Z,14.80
2018-05-03T06:12:14.627Z,14.73
2018-05-03T06:14:41.087Z,14.53
2018-05-03T06:17:07.563Z,14.55
2018-05-03T06:19:33.955Z,14.65
2018-05-03T06:22:01.105Z,14.75
2018-05-03T06:24:27.681Z,14.73
2018-05-03T06:26:54.115Z,14.58
2018-05-03T06:29:20.645Z,14.70
2018-05-03T06:31:47.111Z,14.73
2018-05-03T06:34:13.591Z,14.69
2018-05-03T06:36:40.812Z,14.74
2018-05-03T06:39:14.421Z,14.60
2018-05-03T06:41:41.621Z,14.63
2018-05-03T06:44:08.076Z,14.49
2018-05-03T06:46:34.521Z,14.63
2018-05-03T06:49:00.947Z,14.82
2018-05-03T06:51:27.438Z,14.89
2018-05-03T06:53:54.727Z,14.95
2018-05-03T06:56:21.137Z,15.24
2018-05-03T06:58:47.623Z,15.11
2018-05-03T07:01:14.109Z,15.47
2018-05-03T07:03:40.688Z,15.29
2018-05-03T07:06:07.096Z,15.45
2018-05-03T07:08:33.532Z,15.49
2018-05-03T07:11:00.052Z,15.41
2018-05-03T07:13:26.561Z,15.37
2018-05-03T07:15:53.852Z,15.33
2018-05-03T07:18:20.329Z,15.51
2018-05-03T07:20:47.615Z,15.37
2018-05-03T07:23:14.117Z,15.65
2018-05-03T07:25:41.269Z,15.80
2018-05-03T07:28:08.417Z,15.75
2018-05-03T07:30:35.609Z,15.64
2018-05-03T07:33:02.035Z,15.87
2018-05-03T07:35:28.536Z,15.75
2018-05-03T07:37:55.824Z,15.90
2018-05-03T07:40:22.241Z,15.75
2018-05-03T07:42:49.755Z,15.75
2018-05-03T07:45:17.031Z,15.76
2018-05-03T07:47:43.663Z,15.82
2018-05-03T07:50:10.301Z,16.26
2018-05-03T07:52:38.356Z,16.68
2018-05-03T07:55:05.179Z,16.22
2018-05-03T07:57:31.817Z,16.01
2018-05-03T07:59:58.263Z,16.38
2018-05-03T08:02:24.681Z,16.23
2018-05-03T08:04:51.216Z,16.65
2018-05-03T08:07:18.392Z,16.49
2018-05-03T08:09:45.624Z,16.76
2018-05-03T08:12:12.049Z,16.69
2018-05-03T08:14:39.438Z,16.66
2018-05-03T08:17:06.076Z,16.59
2018-05-03T08:19:34.160Z,16.67
2018-05-03T08:22:01.663Z,16.79
2018-05-03T08:24:28.140Z,16.72
2018-05-03T08:26:55.643Z,16.85
2018-05-03T08:29:22.070Z,17.05
2018-05-03T08:31:48.678Z,17.44
2018-05-03T08:34:15.456Z,17.48
2018-05-03T08:36:42.191Z,17.47
2018-05-03T08:39:08.638Z,17.29
2018-05-03T08:41:35.174Z,17.25
2018-05-03T08:44:01.691Z,17.28
2018-05-03T08:46:28.668Z,17.21
2018-05-03T08:48:55.380Z,16.78
2018-05-03T08:51:21.799Z,16.89
2018-05-03T08:53:49.008Z,17.01
2018-05-03T08:56:15.681Z,16.99
2018-05-03T08:58:42.851Z,17.21
2018-05-03T09:01:09.295Z,17.27
2018-05-03T09:03:36.072Z,17.49
2018-05-03T09:06:02.720Z,17.92
2018-05-03T09:08:29.316Z,18.46
2018-05-03T09:10:55.787Z,17.64
2018-05-03T09:13:22.244Z,17.62
2018-05-03T09:15:49.441Z,17.36
2018-05-03T09:18:15.937Z,17.55
2018-05-03T09:20:43.200Z,17.58
2018-05-03T09:23:09.650Z,17.69
2018-05-03T09:25:36.166Z,17.70
2018-05-03T09:28:02.595Z,17.82
2018-05-03T09:30:29.757Z,18.32
2018-05-03T09:32:56.536Z,18.38
2018-05-03T09:35:24.452Z,18.75
2018-05-03T09:37:51.217Z,18.48
2018-05-03T09:40:17.672Z,18.36
2018-05-03T09:42:44.140Z,18.24
2018-05-03T09:45:11.353Z,18.23
2018-05-03T09:47:37.797Z,18.09
2018-05-03T09:50:04.243Z,18.23
2018-05-03T09:52:30.721Z,18.46
2018-05-03T09:54:57.160Z,18.48
2018-05-03T09:57:23.645Z,18.30
2018-05-03T09:59:50.050Z,18.15
2018-05-03T10:02:16.482Z,18.18
2018-05-03T10:04:42.972Z,18.54
2018-05-03T10:07:09.438Z,18.93
2018-05-03T10:09:35.989Z,19.09
2018-05-03T10:12:02.458Z,19.13
2018-05-03T10:14:29.680Z,18.49
2018-05-03T10:16:56.111Z,18.24
2018-05-03T10:19:22.561Z,18.38
2018-05-03T10:21:50.482Z,18.36
2018-05-03T10:24:16.908Z,18.60
2018-05-03T10:26:43.656Z,18.27
2018-05-03T10:29:10.080Z,18.42
2018-05-03T10:31:36.512Z,18.41
2018-05-03T10:34:02.952Z,18.21
2018-05-03T10:36:29.770Z,17.98
2018-05-03T10:38:57.257Z,18.02
2018-05-03T10:41:23.751Z,17.93
2018-05-03T10:43:50.189Z,17.73
2018-05-03T10:46:17.355Z,18.20
2018-05-03T10:48:44.586Z,18.59
2018-05-03T10:51:10.986Z,18.28
2018-05-03T10:53:37.475Z,18.28
2018-05-03T10:56:04.263Z,18.23
2018-05-03T10:58:30.683Z,18.07
2018-05-03T11:00:58.123Z,18.01
2018-05-03T11:03:24.549Z,18.33
2018-05-03T11:05:51.314Z,18.98
2018-05-03T11:08:17.877Z,18.07
2018-05-03T11:10:44.307Z,18.25
2018-05-03T11:13:10.744Z,18.60
2018-05-03T11:15:37.520Z,18.78
2018-05-03T11:18:04.713Z,18.96
2018-05-03T11:20:31.103Z,18.72
2018-05-03T11:22:57.536Z,19.02
2018-05-03T11:25:24.851Z,18.80
2018-05-03T11:27:51.459Z,19.15
2018-05-03T11:30:17.868Z,18.63
2018-05-03T11:32:44.304Z,18.96
2018-05-03T11:35:10.761Z,19.29
2018-05-03T11:37:37.224Z,19.38
2018-05-03T11:40:03.937Z,19.86
2018-05-03T11:42:30.381Z,20.00
2018-05-03T11:44:57.034Z,20.08
2018-05-03T11:47:23.746Z,20.35
2018-05-03T11:49:51.744Z,20.67
2018-05-03T11:52:18.172Z,20.28
2018-05-03T11:54:44.613Z,19.72
2018-05-03T11:57:11.032Z,19.07
2018-05-03T11:59:37.446Z,20.12
2018-05-03T12:02:04.162Z,20.83
2018-05-03T12:04:30.570Z,20.66
2018-05-03T12:06:57.731Z,20.73
2018-05-03T12:09:24.987Z,21.03
2018-05-03T12:11:52.154Z,20.50
2018-05-03T12:14:18.895Z,20.61
2018-05-03T12:16:45.359Z,20.65
2018-05-03T12:19:11.785Z,20.59
2018-05-03T12:21:38.177Z,19.91
2018-05-03T12:24:05.339Z,19.92
2018-05-03T12:26:31.779Z,19.89
2018-05-03T12:28:58.516Z,20.51
2018-05-03T12:31:25.106Z,20.25
2018-05-03T12:33:53.023Z,20.28
2018-05-03T12:36:19.551Z,20.12
2018-05-03T12:38:45.984Z,20.57
2018-05-03T12:41:12.388Z,20.54
2018-05-03T12:43:39.539Z,20.52
2018-05-03T12:46:06.850Z,20.85
2018-05-03T12:48:33.241Z,20.94
2018-05-03T12:51:00.400Z,20.77
2018-05-03T12:53:27.244Z,21.04
2018-05-03T12:55:53.677Z,21.41
2018-05-03T12:58:20.117Z,21.33
2018-05-03T13:00:46.649Z,21.19
2018-05-03T13:03:13.112Z,21.84
2018-05-03T13:05:39.531Z,22.15
2018-05-03T13:08:05.981Z,22.61
2018-05-03T13:10:32.478Z,22.87
2018-05-03T13:12:58.952Z,22.21
2018-05-03T13:15:25.652Z,22.65
2018-05-03T13:17:52.084Z,22.37
2018-05-03T13:20:18.617Z,23.18
2018-05-03T13:22:45.076Z,23.80
2018-05-03T13:25:11.502Z,24.62
2018-05-03T13:27:37.924Z,23.63
2018-05-03T13:30:04.660Z,22.59
2018-05-03T13:32:31.070Z,22.42
2018-05-03T13:34:58.236Z,22.52
2018-05-03T13:37:25.380Z,22.53
2018-05-03T13:39:52.572Z,22.69
2018-05-03T13:42:19.072Z,23.28
2018-05-03T13:44:45.505Z,22.56
2018-05-03T13:47:12.705Z,22.74
2018-05-03T13:49:39.119Z,23.04
2018-05-03T13:52:05.537Z,23.40
2018-05-03T13:54:32.270Z,22.87
2018-05-03T13:56:58.793Z,22.29
2018-05-03T13:59:26.264Z,22.15
2018-05-03T14:01:52.700Z,21.99
2018-05-03T14:04:19.103Z,22.60
2018-05-03T14:06:46.269Z,22.72
2018-05-03T14:09:12.707Z,22.40
2018-05-03T14:11:39.192Z,23.00
2018-05-03T14:14:05.754Z,23.11
2018-05-03T14:16:32.931Z,24.08
2018-05-03T14:18:59.385Z,25.31
2018-05-03T14:21:25.820Z,25.37
2018-05-03T14:23:52.301Z,25.44
2018-05-03T14:26:19.436Z,25.35
2018-05-03T14:28:47.042Z,25.93
2018-05-03T14:31:13.601Z,26.07
2018-05-03T14:33:40.082Z,26.48
2018-05-03T14:36:07.317Z,26.26
2018-05-03T14:38:33.725Z,25.51
2018-05-03T14:41:00.172Z,25.77
2018-05-03T14:43:26.694Z,26.39
2018-05-03T14:45:53.108Z,27.00
2018-05-03T14:48:19.537Z,25.68
2018-05-03T14:50:45.967Z,25.20
2018-05-03T14:53:12.654Z,25.01
2018-05-03T14:55:39.048Z,24.37
2018-05-03T14:58:05.909Z,23.63
2018-05-03T15:00:32.339Z,23.16
2018-05-03T15:02:58.880Z,22.65
2018-05-03T15:05:25.587Z,22.74
2018-05-03T15:07:51.996Z,22.49
2018-05-03T15:10:19.164Z,22.38
2018-05-03T15:12:45.696Z,22.34
2018-05-03T15:15:12.054Z,23.00
2018-05-03T15:17:38.572Z,23.25
2018-05-03T15:20:05.040Z,22.58
2018-05-03T15:22:31.441Z,22.40
2018-05-03T15:24:57.880Z,22.16
2018-05-03T15:27:24.312Z,21.95
2018-05-03T15:29:50.868Z,21.49
2018-05-03T15:32:17.293Z,21.52
2018-05-03T15:34:44.236Z,21.36
2018-05-03T15:37:10.724Z,21.18
2018-05-03T15:39:39.545Z,21.23
2018-05-03T15:42:06.028Z,21.03
2018-05-03T15:44:32.489Z,20.92
2018-05-03T15:46:58.847Z,21.15
2018-05-03T15:49:25.318Z,21.17
2018-05-03T15:51:51.788Z,21.23
2018-05-03T15:54:19.011Z,20.74
2018-05-03T15:56:45.531Z,20.72
2018-05-03T15:59:11.969Z,20.57
2018-05-03T16:01:39.081Z,20.46
2018-05-03T16:04:05.826Z,20.59
2018-05-03T16:06:32.315Z,20.59
2018-05-03T16:08:59.597Z,20.42
2018-05-03T16:11:26.139Z,20.41
2018-05-03T16:13:52.880Z,20.65
2018-05-03T16:16:19.970Z,20.67
2018-05-03T16:18:46.405Z,21.08
2018-05-03T16:21:12.861Z,21.10
2018-05-03T16:23:39.295Z,21.22
2018-05-03T16:26:06.505Z,21.51
2018-05-03T16:28:33.037Z,21.28
2018-05-03T16:31:00.312Z,21.26
2018-05-03T16:33:26.756Z,21.03
2018-05-03T16:35:53.135Z,21.25
2018-05-03T16:38:19.719Z,21.22
2018-05-03T16:40:46.550Z,21.23
2018-05-03T16:43:12.952Z,21.12
2018-05-03T16:45:39.510Z,21.00
2018-05-03T16:48:05.936Z,21.00
2018-05-03T16:50:32.348Z,20.82
2018-05-03T16:52:59.697Z,20.48
2018-05-03T16:55:26.366Z,20.62
2018-05-03T16:57:52.801Z,20.58
2018-05-03T17:00:19.268Z,20.78
2018-05-03T17:02:46.476Z,20.87
2018-05-03T17:05:12.889Z,20.90
2018-05-03T17:07:39.321Z,21.40
2018-05-03T17:10:05.839Z,21.51
2018-05-03T17:12:32.264Z,21.47
2018-05-03T17:14:59.674Z,21.40
2018-05-03T17:17:26.139Z,21.63
2018-05-03T17:19:53.332Z,21.27
2018-05-03T17:22:19.841Z,21.64
2018-05-03T17:24:47.062Z,21.50
2018-05-03T17:27:13.454Z,21.51
2018-05-03T17:29:40.496Z,21.45
2018-05-03T17:32:06.978Z,22.06
2018-05-03T17:34:34.264Z,22.00
2018-05-03T17:37:01.609Z,21.56
2018-05-03T17:39:28.879Z,21.23
2018-05-03T17:41:55.424Z,20.95
2018-05-03T17:44:22.054Z,20.63
2018-05-03T17:46:49.233Z,20.67
2018-05-03T17:49:15.643Z,20.61
2018-05-03T17:51:42.314Z,20.51
2018-05-03T17:54:09.568Z,20.44
2018-05-03T17:56:36.024Z,20.46
2018-05-03T17:59:02.496Z,20.52
2018-05-03T18:01:28.957Z,20.12
2018-05-03T18:03:55.456Z,20.05
2018-05-03T18:06:22.006Z,19.96
2018-05-03T18:08:48.590Z,19.94
2018-05-03T18:11:15.960Z,19.86
2018-05-03T18:13:42.411Z,19.55
2018-05-03T18:16:09.765Z,19.42
2018-05-03T18:18:36.165Z,19.31
2018-05-03T18:21:02.893Z,19.15
2018-05-03T18:23:29.489Z,19.14
2018-05-03T18:25:55.952Z,18.98
2018-05-03T18:28:22.390Z,18.79
2018-05-03T18:30:48.817Z,18.71
2018-05-03T18:33:15.497Z,18.56
2018-05-03T18:35:42.665Z,18.45
2018-05-03T18:38:09.184Z,18.38
2018-05-03T18:40:36.389Z,18.37
2018-05-03T18:43:02.873Z,18.33
2018-05-03T18:45:30.693Z,18.26
2018-05-03T18:47:57.105Z,18.24
2018-05-03T18:50:23.660Z,18.23
2018-05-03T18:52:50.476Z,18.22
2018-05-03T18:55:17.010Z,18.20
2018-05-03T18:57:43.419Z,18.14
2018-05-03T19:00:10.614Z,18.09
2018-05-03T19:02:37.276Z,18.08
2018-05-03T19:05:03.737Z,18.08
2018-05-03T19:07:30.994Z,18.07
2018-05-03T19:09:57.904Z,18.04
2018-05-03T19:12:24.305Z,18.11
2018-05-03T19:14:50.944Z,17.96
2018-05-03T19:17:17.786Z,18.05
2018-05-03T19:19:44.213Z,17.93
2018-05-03T19:22:11.054Z,17.86
2018-05-03T19:24:37.788Z,17.83
2018-05-03T19:27:04.189Z,17.78
2018-05-03T19:29:30.727Z,17.77
2018-05-03T19:31:57.891Z,17.74
2018-05-03T19:34:25.040Z,17.75
2018-05-03T19:36:51.524Z,17.70
2018-05-03T19:39:17.975Z,17.79
2018-05-03T19:41:44.455Z,17.78
2018-05-03T19:44:11.092Z,17.69
2018-05-03T19:46:38.576Z,17.69
2018-05-03T19:49:05.001Z,17.71
2018-05-03T19:51:31.526Z,17.69
2018-05-03T19:53:57.964Z,17.72
2018-05-03T19:56:24.396Z,17.71
2018-05-03T19:58:51.177Z,17.62
2018-05-03T20:01:17.693Z,17.56
2018-05-03T20:03:44.294Z,17.52
2018-05-03T20:06:10.724Z,17.46
2018-05-03T20:08:37.147Z,17.46
2018-05-03T20:11:03.609Z,17.53
2018-05-03T20:13:30.080Z,17.46
2018-05-03T20:15:56.775Z,17.38
2018-05-03T20:18:23.279Z,17.37
2018-05-03T20:20:50.505Z,17.34
2018-05-03T20:23:16.935Z,17.32
2018-05-03T20:25:43.693Z,17.28
2018-05-03T20:28:10.121Z,17.28
2018-05-03T20:30:36.516Z,17.28
2018-05-03T20:33:02.943Z,17.27
2018-05-03T20:35:30.405Z,17.25
2018-05-03T20:37:56.890Z,17.25
2018-05-03T20:40:24.179Z,17.19
2018-05-03T20:42:50.659Z,17.11
2018-05-03T20:45:17.093Z,17.13
2018-05-03T20:47:43.532Z,17.09
2018-05-03T20:50:17.796Z,17.03
2018-05-03T20:52:44.205Z,17.01
2018-05-03T20:55:11.349Z,16.99
2018-05-03T20:57:39.022Z,16.98
2018-05-03T21:00:05.384Z,16.90
2018-05-03T21:02:32.317Z,16.86
2018-05-03T21:04:58.854Z,16.79
2018-05-03T21:07:25.388Z,16.78
2018-05-03T21:09:51.888Z,16.78
2018-05-03T21:12:18.352Z,16.70
2018-05-03T21:14:44.769Z,16.66
2018-05-03T21:17:11.958Z,16.68
2018-05-03T21:19:38.472Z,16.61
2018-05-03T21:22:04.902Z,16.59
2018-05-03T21:24:31.417Z,16.55
2018-05-03T21:26:58.644Z,16.57
2018-05-03T21:29:25.119Z,16.50
2018-05-03T21:31:51.631Z,16.46
2018-05-03T21:34:19.033Z,16.49
2018-05-03T21:36:45.482Z,16.50
2018-05-03T21:39:11.889Z,16.43
2018-05-03T21:41:38.378Z,16.43
2018-05-03T21:44:05.711Z,16.41
2018-05-03T21:46:32.222Z,16.36
2018-05-03T21:48:58.785Z,16.36
2018-05-03T21:51:25.983Z,16.40
2018-05-03T21:53:52.396Z,16.36
2018-05-03T21:56:18.860Z,16.39
2018-05-03T21:58:45.353Z,16.36
2018-05-03T22:01:11.792Z,16.33
2018-05-03T22:03:38.263Z,16.27
2018-05-03T22:06:04.700Z,16.36
2018-05-03T22:08:31.100Z,16.31
2018-05-03T22:10:58.240Z,16.28
2018-05-03T22:13:24.674Z,16.21
2018-05-03T22:15:51.987Z,16.29
2018-05-03T22:18:18.417Z,16.28
2018-05-03T22:20:44.904Z,16.29
2018-05-03T22:23:11.360Z,16.18
2018-05-03T22:25:37.820Z,16.13
2018-05-03T22:28:04.219Z,16.29
2018-05-03T22:30:30.811Z,16.29
2018-05-03T22:32:57.328Z,16.12
2018-05-03T22:35:23.902Z,16.13
2018-05-03T22:37:50.367Z,16.17
2018-05-03T22:40:16.832Z,16.19
2018-05-03T22:42:43.256Z,16.18
2018-05-03T22:45:09.656Z,16.07
2018-05-03T22:47:37.099Z,16.09
2018-05-03T22:50:04.253Z,16.06
2018-05-03T22:52:32.515Z,16.08
2018-05-03T22:54:59.730Z,16.14
2018-05-03T22:57:26.145Z,16.07
2018-05-03T22:59:52.589Z,16.07
2018-05-03T23:02:19.026Z,16.00
2018-05-03T23:04:45.430Z,16.07
2018-05-03T23:07:11.867Z,16.01
2018-05-03T23:09:38.530Z,15.99
2018-05-03T23:12:04.994Z,16.09
2018-05-03T23:14:31.805Z,16.05
2018-05-03T23:16:58.248Z,16.00
2018-05-03T23:19:24.752Z,16.04
2018-05-03T23:21:51.205Z,16.03
2018-05-03T23:24:17.736Z,15.97
2018-05-03T23:26:44.124Z,15.94
2018-05-03T23:29:11.262Z,16.04
2018-05-03T23:31:37.692Z,16.00
2018-05-03T23:34:04.900Z,15.93
2018-05-03T23:36:31.344Z,15.98
2018-05-03T23:38:57.786Z,15.91
2018-05-03T23:41:25.435Z,15.79
2018-05-03T23:43:51.868Z,15.82
2018-05-03T23:46:18.316Z,15.77
2018-05-03T23:48:45.020Z,15.68
2018-05-03T23:51:11.508Z,15.54
2018-05-03T23:53:38.712Z,15.53
2018-05-03T23:56:05.151Z,15.58
2018-05-03T23:58:32.115Z,15.46
